createdAt,value
2018-08-04T00:00:01.381Z,55.14
2018-08-04T00:01:01.358Z,55.92
2018-08-04T00:02:01.653Z,55.79
2018-08-04T00:03:01.378Z,55.31
2018-08-04T00:04:01.385Z,55.54
2018-08-04T00:05:01.357Z,55.8
2018-08-04T00:06:01.434Z,55.56
2018-08-04T00:07:01.522Z,56.13
2018-08-04T00:08:01.442Z,55.61
2018-08-04T00:09:01.431Z,56.04
2018-08-04T00:10:01.483Z,56
2018-08-04T00:11:01.430Z,56.13
2018-08-04T00:12:01.428Z,56.06
2018-08-04T00:13:01.399Z,56
2018-08-04T00:14:01.454Z,56.07
2018-08-04T00:15:01.382Z,55.42
2018-08-04T00:16:01.357Z,56.09
2018-08-04T00:17:01.458Z,56.02
2018-08-04T00:18:01.479Z,55.71
2018-08-04T00:19:01.942Z,56.25
2018-08-04T00:20:01.391Z,56.38
2018-08-04T00:21:01.472Z,56.51
2018-08-04T00:22:01.761Z,55.84
2018-08-04T00:23:01.387Z,57.75
2018-08-04T00:24:01.421Z,57.19
2018-08-04T00:25:01.429Z,57.95
2018-08-04T00:26:01.498Z,57.99
2018-08-04T00:27:01.391Z,58.72
2018-08-04T00:28:01.546Z,58.84
2018-08-04T00:29:01.405Z,58.47
2018-08-04T00:30:01.410Z,59.22
2018-08-04T00:31:01.523Z,58.63
2018-08-04T00:32:01.434Z,59.34
2018-08-04T00:33:01.446Z,59.6
2018-08-04T00:34:01.425Z,59.91
2018-08-04T00:35:01.729Z,59.84
2018-08-04T00:36:01.434Z,59.96
2018-08-04T00:37:01.406Z,59.85
2018-08-04T00:38:01.456Z,59.72
2018-08-04T00:39:01.871Z,59.81
2018-08-04T00:40:01.442Z,60.78
2018-08-04T00:41:01.521Z,60.14
2018-08-04T00:42:01.541Z,60.58
2018-08-04T00:43:01.414Z,60.57
2018-08-04T00:44:01.506Z,60.92
2018-08-04T00:45:01.623Z,60.78
2018-08-04T00:46:01.509Z,60.35
2018-08-04T00:47:01.454Z,60.63
2018-08-04T00:48:01.590Z,60.42
2018-08-04T00:49:01.411Z,60.79
2018-08-04T00:50:02.161Z,60.2
2018-08-04T00:51:01.493Z,60.89
2018-08-04T00:52:01.770Z,60.51
2018-08-04T00:53:01.549Z,60.5
2018-08-04T00:54:01.426Z,59.94
2018-08-04T00:55:01.421Z,59.83
2018-08-04T00:56:01.485Z,60.54
2018-08-04T00:57:01.478Z,60.61
2018-08-04T00:58:01.546Z,60.44
2018-08-04T00:59:01.688Z,60.64
2018-08-04T01:00:01.783Z,60.35
2018-08-04T01:01:01.723Z,59.85
2018-08-04T01:02:01.524Z,60.02
2018-08-04T01:03:01.472Z,60.13
2018-08-04T01:04:01.451Z,60.09
2018-08-04T01:05:01.455Z,60.56
2018-08-04T01:06:01.462Z,59.4
2018-08-04T01:07:01.445Z,59.19
2018-08-04T01:08:01.463Z,59.46
2018-08-04T01:09:01.477Z,60.23
2018-08-04T01:10:01.453Z,59.59
2018-08-04T01:11:01.458Z,59.16
2018-08-04T01:12:01.477Z,60.05
2018-08-04T01:13:01.480Z,59.18
2018-08-04T01:14:01.497Z,59.18
2018-08-04T01:15:01.455Z,59.66
2018-08-04T01:16:01.506Z,59.19
2018-08-04T01:17:01.462Z,59.22
2018-08-04T01:18:01.470Z,59.33
2018-08-04T01:19:01.453Z,60.06
2018-08-04T01:20:01.477Z,60.16
2018-08-04T01:21:01.515Z,59.84
2018-08-04T01:22:01.466Z,60.11
2018-08-04T01:23:01.493Z,59.78
2018-08-04T01:24:01.613Z,59.7
2018-08-04T01:25:01.497Z,59.39
2018-08-04T01:26:01.497Z,59.19
2018-08-04T01:27:01.696Z,59.69
2018-08-04T01:28:01.537Z,60.19
2018-08-04T01:29:01.502Z,59.15
2018-08-04T01:30:01.684Z,60.2
2018-08-04T01:31:01.548Z,59.33
2018-08-04T01:32:01.676Z,59.24
2018-08-04T01:33:01.738Z,59.49
2018-08-04T01:34:01.749Z,60.08
2018-08-04T01:35:01.523Z,59.71
2018-08-04T01:36:01.506Z,59.71
2018-08-04T01:37:01.973Z,59.99
2018-08-04T01:38:01.506Z,60.51
2018-08-04T01:39:01.715Z,60.39
2018-08-04T01:40:01.508Z,60.84
2018-08-04T01:41:01.613Z,60.7
2018-08-04T01:42:02.203Z,60.68
2018-08-04T01:43:01.527Z,60.35
2018-08-04T01:44:01.669Z,60.87
2018-08-04T01:45:01.584Z,61.11
2018-08-04T01:46:01.579Z,60.2
2018-08-04T01:47:01.488Z,60.64
2018-08-04T01:48:01.637Z,60.72
2018-08-04T01:49:01.534Z,59.69
2018-08-04T01:50:01.509Z,59.84
2018-08-04T01:51:01.673Z,60.18
2018-08-04T01:52:01.529Z,60.55
2018-08-04T01:53:01.499Z,60.55
2018-08-04T01:54:01.513Z,60.72
2018-08-04T01:55:01.647Z,61.74
2018-08-04T01:56:01.503Z,61.59
2018-08-04T01:57:01.620Z,61.65
2018-08-04T01:58:01.551Z,60.78
2018-08-04T01:59:01.724Z,60.64
2018-08-04T02:00:01.654Z,60.72
2018-08-04T02:01:01.549Z,60.23
2018-08-04T02:02:01.536Z,59.91
2018-08-04T02:03:01.534Z,60.13
2018-08-04T02:04:01.571Z,60.16
2018-08-04T02:05:01.909Z,60.14
2018-08-04T02:06:01.548Z,60.29
2018-08-04T02:07:01.521Z,60.36
2018-08-04T02:08:01.544Z,60.51
2018-08-04T02:09:01.665Z,60.74
2018-08-04T02:10:01.564Z,60.66
2018-08-04T02:11:01.559Z,60.45
2018-08-04T02:12:01.731Z,60.72
2018-08-04T02:13:01.537Z,60.95
2018-08-04T02:14:01.585Z,61.34
2018-08-04T02:15:01.546Z,61.46
2018-08-04T02:16:01.583Z,61.42
2018-08-04T02:17:01.831Z,61.46
2018-08-04T02:18:01.572Z,61.36
2018-08-04T02:19:01.563Z,60.74
2018-08-04T02:20:01.545Z,61.66
2018-08-04T02:21:01.590Z,61.49
2018-08-04T02:22:01.549Z,61.72
2018-08-04T02:23:01.535Z,61.51
2018-08-04T02:24:01.563Z,61.63
2018-08-04T02:25:01.568Z,61.23
2018-08-04T02:26:01.595Z,60.78
2018-08-04T02:27:01.548Z,60.93
2018-08-04T02:28:01.551Z,61.27
2018-08-04T02:29:01.560Z,61.32
2018-08-04T02:30:01.585Z,61.01
2018-08-04T02:31:01.553Z,61.8
2018-08-04T02:32:01.599Z,61.26
2018-08-04T02:33:01.632Z,61.39
2018-08-04T02:34:01.572Z,60.7
2018-08-04T02:35:01.593Z,61.51
2018-08-04T02:36:01.583Z,61.29
2018-08-04T02:37:01.609Z,61.41
2018-08-04T02:38:01.560Z,62.25
2018-08-04T02:39:01.610Z,62.06
2018-08-04T02:40:01.580Z,62.15
2018-08-04T02:41:01.575Z,62.02
2018-08-04T02:42:01.812Z,61.82
2018-08-04T02:43:01.557Z,62.36
2018-08-04T02:44:01.607Z,61.63
2018-08-04T02:45:01.826Z,61.66
2018-08-04T02:46:01.812Z,61.63
2018-08-04T02:47:01.599Z,61.82
2018-08-04T02:48:01.654Z,62.24
2018-08-04T02:49:01.713Z,61.34
2018-08-04T02:50:01.676Z,61.89
2018-08-04T02:51:01.599Z,62.31
2018-08-04T02:52:01.846Z,62.82
2018-08-04T02:53:01.611Z,61.81
2018-08-04T02:54:01.618Z,62.4
2018-08-04T02:55:01.707Z,63.24
2018-08-04T02:56:01.716Z,63.58
2018-08-04T02:57:01.658Z,63.68
2018-08-04T02:58:01.648Z,63.29
2018-08-04T02:59:01.635Z,62.74
2018-08-04T03:00:01.704Z,62.74
2018-08-04T03:01:01.800Z,62.56
2018-08-04T03:02:01.646Z,62.81
2018-08-04T03:03:01.593Z,62.5
2018-08-04T03:04:01.834Z,62.54
2018-08-04T03:05:01.772Z,62.25
2018-08-04T03:06:01.639Z,62.5
2018-08-04T03:07:01.602Z,62.39
2018-08-04T03:08:01.628Z,62.09
2018-08-04T03:09:01.982Z,62.65
2018-08-04T03:10:01.742Z,62.8
2018-08-04T03:11:01.642Z,62.49
2018-08-04T03:12:01.760Z,61.95
2018-08-04T03:13:01.662Z,62.41
2018-08-04T03:14:01.836Z,62.61
2018-08-04T03:15:01.741Z,62.89
2018-08-04T03:16:01.639Z,63.08
2018-08-04T03:17:01.644Z,63.25
2018-08-04T03:18:01.629Z,63.44
2018-08-04T03:19:01.784Z,63.17
2018-08-04T03:20:01.712Z,63.16
2018-08-04T03:21:01.637Z,62.87
2018-08-04T03:22:01.632Z,63.55
2018-08-04T03:23:01.625Z,63.06
2018-08-04T03:24:01.642Z,63.45
2018-08-04T03:25:01.787Z,63.44
2018-08-04T03:26:01.691Z,63.26
2018-08-04T03:27:01.653Z,62.88
2018-08-04T03:28:01.725Z,63.59
2018-08-04T03:29:01.673Z,63.4
2018-08-04T03:30:01.853Z,63.52
2018-08-04T03:31:01.670Z,63.56
2018-08-04T03:32:01.737Z,63.84
2018-08-04T03:33:01.688Z,63.77
2018-08-04T03:34:01.738Z,63.67
2018-08-04T03:35:01.690Z,63.7
2018-08-04T03:36:01.713Z,63.89
2018-08-04T03:37:01.653Z,63.76
2018-08-04T03:38:01.650Z,63.83
2018-08-04T03:39:01.699Z,63.67
2018-08-04T03:40:01.664Z,63.99
2018-08-04T03:41:01.649Z,63.82
2018-08-04T03:42:01.658Z,63.62
2018-08-04T03:43:01.695Z,63.65
2018-08-04T03:44:01.695Z,63.5
2018-08-04T03:45:01.665Z,63.04
2018-08-04T03:46:01.697Z,63.22
2018-08-04T03:47:01.670Z,63.38
2018-08-04T03:48:01.663Z,63.5
2018-08-04T03:49:01.692Z,63.36
2018-08-04T03:50:01.702Z,63.35
2018-08-04T03:51:01.711Z,63.57
2018-08-04T03:52:01.722Z,63.35
2018-08-04T03:53:01.652Z,63.76
2018-08-04T03:54:01.676Z,63.4
2018-08-04T03:55:01.682Z,63.56
2018-08-04T03:56:01.680Z,63.75
2018-08-04T03:57:02.126Z,63.38
2018-08-04T03:58:01.856Z,64.22
2018-08-04T03:59:01.656Z,64.43
2018-08-04T04:00:01.876Z,64.58
2018-08-04T04:01:01.667Z,64.73
2018-08-04T04:02:01.727Z,65.01
2018-08-04T04:03:01.730Z,64.77
2018-08-04T04:04:01.773Z,64.85
2018-08-04T04:05:01.688Z,64.22
2018-08-04T04:06:01.680Z,64.53
2018-08-04T04:07:01.693Z,64.34
2018-08-04T04:08:01.739Z,64.54
2018-08-04T04:09:01.725Z,63.98
2018-08-04T04:10:01.689Z,64.43
2018-08-04T04:11:01.870Z,65.28
2018-08-04T04:12:01.791Z,65.06
2018-08-04T04:13:01.750Z,65.51
2018-08-04T04:14:01.731Z,64.9
2018-08-04T04:15:01.737Z,64.31
2018-08-04T04:16:01.745Z,64.86
2018-08-04T04:17:01.747Z,66.03
2018-08-04T04:18:01.806Z,66.45
2018-08-04T04:19:01.842Z,66.54
2018-08-04T04:20:01.778Z,66.42
2018-08-04T04:21:02.073Z,66.24
2018-08-04T04:22:01.748Z,66.03
2018-08-04T04:23:01.777Z,65.46
2018-08-04T04:24:01.853Z,65.79
2018-08-04T04:25:01.734Z,66.49
2018-08-04T04:26:01.763Z,66.13
2018-08-04T04:27:01.746Z,66.27
2018-08-04T04:28:01.697Z,65.98
2018-08-04T04:29:01.720Z,65.36
2018-08-04T04:30:01.730Z,65.82
2018-08-04T04:31:01.737Z,65.02
2018-08-04T04:32:01.718Z,65.2
2018-08-04T04:33:01.956Z,65.87
2018-08-04T04:34:01.865Z,65.76
2018-08-04T04:35:01.724Z,65.42
2018-08-04T04:36:01.837Z,65.43
2018-08-04T04:37:01.782Z,65.14
2018-08-04T04:38:01.811Z,66.1
2018-08-04T04:39:01.999Z,66.72
2018-08-04T04:40:01.727Z,66.15
2018-08-04T04:41:01.991Z,65.87
2018-08-04T04:42:01.712Z,66.17
2018-08-04T04:43:01.923Z,66.47
2018-08-04T04:44:01.941Z,65.84
2018-08-04T04:45:02.132Z,65.24
2018-08-04T04:46:01.995Z,64.9
2018-08-04T04:47:01.778Z,65.06
2018-08-04T04:48:01.802Z,64.99
2018-08-04T04:49:01.962Z,65.64
2018-08-04T04:50:02.010Z,66.1
2018-08-04T04:51:01.997Z,65.98
2018-08-04T04:52:01.776Z,65.55
2018-08-04T04:53:01.773Z,65.74
2018-08-04T04:54:01.743Z,65.64
2018-08-04T04:55:01.723Z,65.3
2018-08-04T04:56:01.756Z,65.15
2018-08-04T04:57:01.770Z,64.81
2018-08-04T04:58:01.791Z,65.09
2018-08-04T04:59:01.835Z,64.74
2018-08-04T05:00:01.768Z,64.14
2018-08-04T05:01:01.815Z,63.98
2018-08-04T05:02:02.108Z,63.75
2018-08-04T05:03:01.775Z,63.81
2018-08-04T05:04:01.786Z,64.08
2018-08-04T05:05:01.799Z,63.76
2018-08-04T05:06:01.768Z,64.2
2018-08-04T05:07:01.968Z,64.3
2018-08-04T05:08:01.802Z,63.61
2018-08-04T05:09:01.794Z,63.57
2018-08-04T05:10:01.784Z,63.29
2018-08-04T05:11:01.765Z,63.67
2018-08-04T05:12:01.787Z,63.37
2018-08-04T05:13:02.020Z,63.08
2018-08-04T05:14:01.800Z,63.21
2018-08-04T05:15:01.789Z,63.2
2018-08-04T05:16:01.757Z,62.82
2018-08-04T05:17:01.811Z,63
2018-08-04T05:18:01.776Z,63.17
2018-08-04T05:19:01.936Z,63.44
2018-08-04T05:20:01.807Z,63.11
2018-08-04T05:21:01.800Z,62.87
2018-08-04T05:22:01.784Z,62.78
2018-08-04T05:23:01.790Z,63.05
2018-08-04T05:24:02.023Z,62.89
2018-08-04T05:25:01.777Z,62.68
2018-08-04T05:26:01.792Z,63.5
2018-08-04T05:27:01.846Z,63.29
2018-08-04T05:28:01.863Z,62.85
2018-08-04T05:29:02.004Z,63.04
2018-08-04T05:30:01.879Z,62.64
2018-08-04T05:31:02.144Z,62.89
2018-08-04T05:32:02.158Z,63.27
2018-08-04T05:33:01.800Z,63.34
2018-08-04T05:34:01.815Z,63.72
2018-08-04T05:35:01.820Z,63.15
2018-08-04T05:36:01.801Z,63.09
2018-08-04T05:37:01.976Z,63.07
2018-08-04T05:38:01.831Z,62.82
2018-08-04T05:39:01.865Z,62.46
2018-08-04T05:40:01.815Z,62.61
2018-08-04T05:41:01.809Z,63.17
2018-08-04T05:42:01.973Z,62.51
2018-08-04T05:43:02.123Z,62.48
2018-08-04T05:44:01.949Z,62.36
2018-08-04T05:45:02.004Z,62.3
2018-08-04T05:46:01.830Z,62.38
2018-08-04T05:47:01.883Z,62.12
2018-08-04T05:48:01.898Z,62.8
2018-08-04T05:49:01.870Z,62.47
2018-08-04T05:50:02.314Z,62.76
2018-08-04T05:51:01.804Z,62.48
2018-08-04T05:52:02.004Z,62.84
2018-08-04T05:53:01.882Z,62.74
2018-08-04T05:54:01.851Z,63.07
2018-08-04T05:55:01.867Z,62.65
2018-08-04T05:56:02.124Z,62.73
2018-08-04T05:57:01.832Z,62.73
2018-08-04T05:58:02.116Z,62.76
2018-08-04T05:59:02.028Z,62.64
2018-08-04T06:00:01.885Z,62.42
2018-08-04T06:01:01.872Z,62.23
2018-08-04T06:02:02.457Z,62.6
2018-08-04T06:03:01.820Z,62.23
2018-08-04T06:04:01.842Z,62.74
2018-08-04T06:05:01.959Z,62.39
2018-08-04T06:06:01.856Z,62.19
2018-08-04T06:07:01.834Z,62.04
2018-08-04T06:08:01.885Z,61.93
2018-08-04T06:09:01.829Z,61.81
2018-08-04T06:10:01.840Z,61.9
2018-08-04T06:11:01.896Z,61.98
2018-08-04T06:12:01.874Z,62.06
2018-08-04T06:13:01.837Z,62.41
2018-08-04T06:14:01.908Z,62.12
2018-08-04T06:15:01.906Z,61.89
2018-08-04T06:16:01.860Z,62.08
2018-08-04T06:17:01.841Z,62.4
2018-08-04T06:18:01.859Z,62.07
2018-08-04T06:19:01.860Z,61.97
2018-08-04T06:20:01.865Z,62.2
2018-08-04T06:21:01.910Z,61.91
2018-08-04T06:22:02.048Z,61.79
2018-08-04T06:23:01.880Z,62.17
2018-08-04T06:24:02.005Z,62.32
2018-08-04T06:25:02.001Z,63.01
2018-08-04T06:26:01.869Z,62.4
2018-08-04T06:27:01.834Z,62.6
2018-08-04T06:28:01.871Z,62.34
2018-08-04T06:29:01.850Z,62.21
2018-08-04T06:30:02.269Z,61.97
2018-08-04T06:31:02.186Z,61.8
2018-08-04T06:32:01.868Z,62.46
2018-08-04T06:33:01.870Z,62.46
2018-08-04T06:34:01.868Z,62.08
2018-08-04T06:35:02.023Z,62.46
2018-08-04T06:36:02.171Z,62.06
2018-08-04T06:37:01.965Z,62.09
2018-08-04T06:38:02.023Z,62.31
2018-08-04T06:39:02.092Z,62.47
2018-08-04T06:40:02.035Z,62.28
2018-08-04T06:41:02.002Z,62.15
2018-08-04T06:42:02.015Z,62.15
2018-08-04T06:43:02.014Z,62.46
2018-08-04T06:44:01.892Z,62.48
2018-08-04T06:45:02.012Z,62.07
2018-08-04T06:46:02.008Z,61.51
2018-08-04T06:47:01.907Z,61.2
2018-08-04T06:48:01.975Z,61.42
2018-08-04T06:49:01.895Z,61.54
2018-08-04T06:50:01.961Z,61.19
2018-08-04T06:51:02.019Z,61.48
2018-08-04T06:52:01.951Z,61.27
2018-08-04T06:53:02.237Z,61.37
2018-08-04T06:54:02.054Z,61.28
2018-08-04T06:55:02.027Z,61.55
2018-08-04T06:56:02.039Z,61.37
2018-08-04T06:57:02.034Z,61.68
2018-08-04T06:58:02.111Z,61.67
2018-08-04T06:59:01.969Z,61.4
2018-08-04T07:00:02.124Z,61.35
2018-08-04T07:01:02.243Z,61.04
2018-08-04T07:02:02.004Z,61.44
2018-08-04T07:03:01.948Z,61.08
2018-08-04T07:04:02.172Z,61.03
2018-08-04T07:05:01.965Z,61.03
2018-08-04T07:06:01.930Z,60.59
2018-08-04T07:07:01.985Z,60.74
2018-08-04T07:08:01.918Z,60.79
2018-08-04T07:09:02.091Z,60.84
2018-08-04T07:10:01.961Z,60.4
2018-08-04T07:11:01.984Z,60.36
2018-08-04T07:12:03.483Z,59.66
2018-08-04T07:13:02.739Z,60.28
2018-08-04T07:14:01.941Z,59.71
2018-08-04T07:15:02.094Z,59.42
2018-08-04T07:16:01.958Z,59.91
2018-08-04T07:17:01.951Z,59.84
2018-08-04T07:18:02.030Z,59.39
2018-08-04T07:19:01.974Z,59.45
2018-08-04T07:20:02.043Z,59.25
2018-08-04T07:21:02.016Z,58.98
2018-08-04T07:22:01.972Z,58.95
2018-08-04T07:23:02.474Z,59.14
2018-08-04T07:24:02.027Z,59.24
2018-08-04T07:25:01.981Z,59.4
2018-08-04T07:26:01.945Z,59.11
2018-08-04T07:27:01.968Z,58.92
2018-08-04T07:28:01.937Z,58.51
2018-08-04T07:29:02.501Z,58.66
2018-08-04T07:30:01.989Z,58.83
2018-08-04T07:31:01.959Z,59.23
2018-08-04T07:32:02.006Z,58.57
2018-08-04T07:33:01.943Z,58.17
2018-08-04T07:34:01.965Z,57.4
2018-08-04T07:35:01.969Z,57.89
2018-08-04T07:36:02.000Z,58.08
2018-08-04T07:37:01.981Z,57.53
2018-08-04T07:38:01.997Z,57.75
2018-08-04T07:39:01.993Z,57.6
2018-08-04T07:40:01.988Z,57.54
2018-08-04T07:41:02.363Z,56.86
2018-08-04T07:42:02.031Z,56.57
2018-08-04T07:43:01.982Z,56.18
2018-08-04T07:44:02.008Z,56.28
2018-08-04T07:45:01.961Z,56.49
2018-08-04T07:46:01.989Z,56.81
2018-08-04T07:47:02.143Z,57.09
2018-08-04T07:48:01.963Z,56.92
2018-08-04T07:49:02.266Z,57.19
2018-08-04T07:50:02.143Z,57.22
2018-08-04T07:51:02.026Z,57.37
2018-08-04T07:52:02.060Z,56.62
2018-08-04T07:53:02.002Z,56.57
2018-08-04T07:54:02.352Z,56.55
2018-08-04T07:55:02.000Z,56.55
2018-08-04T07:56:01.971Z,57.5
2018-08-04T07:57:01.982Z,56.84
2018-08-04T07:58:02.023Z,57.29
2018-08-04T07:59:02.007Z,56.2
2018-08-04T08:00:02.026Z,55.38
2018-08-04T08:01:02.022Z,55.4
2018-08-04T08:02:02.047Z,55.24
2018-08-04T08:03:02.053Z,55.39
2018-08-04T08:04:02.015Z,56.32
2018-08-04T08:05:02.383Z,55.26
2018-08-04T08:06:01.980Z,55.93
2018-08-04T08:07:02.213Z,54.99
2018-08-04T08:08:02.063Z,55.55
2018-08-04T08:09:02.071Z,55.74
2018-08-04T08:10:02.007Z,56.05
2018-08-04T08:11:02.433Z,55.31
2018-08-04T08:12:02.013Z,55.66
2018-08-04T08:13:02.064Z,54.44
2018-08-04T08:14:02.030Z,54.71
2018-08-04T08:15:02.114Z,54.99
2018-08-04T08:16:02.196Z,54.76
2018-08-04T08:17:02.025Z,55.12
2018-08-04T08:18:02.034Z,54.66
2018-08-04T08:19:01.995Z,54.57
2018-08-04T08:20:02.212Z,54.44
2018-08-04T08:21:02.423Z,54.67
2018-08-04T08:22:02.022Z,54.44
2018-08-04T08:23:02.488Z,53.74
2018-08-04T08:24:02.173Z,53.1
2018-08-04T08:25:02.017Z,53.01
2018-08-04T08:26:02.031Z,52.3
2018-08-04T08:27:03.531Z,53.52
2018-08-04T08:28:02.095Z,52.6
2018-08-04T08:29:02.234Z,52.68
2018-08-04T08:30:02.037Z,52.53
2018-08-04T08:31:02.032Z,52.22
2018-08-04T08:32:02.055Z,52.36
2018-08-04T08:33:02.039Z,52.11
2018-08-04T08:34:02.044Z,52.79
2018-08-04T08:35:02.043Z,52.21
2018-08-04T08:36:02.030Z,52.61
2018-08-04T08:37:02.084Z,52.23
2018-08-04T08:38:02.309Z,52.77
2018-08-04T08:39:02.042Z,51.95
2018-08-04T08:40:02.055Z,52.37
2018-08-04T08:41:02.072Z,51.63
2018-08-04T08:42:02.096Z,51.14
2018-08-04T08:43:02.032Z,51.37
2018-08-04T08:44:02.060Z,51.21
2018-08-04T08:45:02.055Z,51.89
2018-08-04T08:46:02.086Z,51.85
2018-08-04T08:47:02.335Z,51.63
2018-08-04T08:48:02.065Z,51.85
2018-08-04T08:49:02.118Z,51.57
2018-08-04T08:50:02.517Z,50.93
2018-08-04T08:51:02.079Z,51.24
2018-08-04T08:52:02.084Z,51.2
2018-08-04T08:53:02.445Z,51.1
2018-08-04T08:54:03.190Z,51
2018-08-04T08:55:02.103Z,50.78
2018-08-04T08:56:02.087Z,50.97
2018-08-04T08:57:02.088Z,50.42
2018-08-04T08:58:02.086Z,50.4
2018-08-04T08:59:02.074Z,49.78
2018-08-04T09:00:02.098Z,50.46
2018-08-04T09:01:02.113Z,50.89
2018-08-04T09:02:02.067Z,49.94
2018-08-04T09:03:02.133Z,50.17
2018-08-04T09:04:02.110Z,50
2018-08-04T09:05:02.312Z,49.77
2018-08-04T09:06:02.083Z,49.74
2018-08-04T09:07:02.057Z,48.98
2018-08-04T09:08:02.072Z,48.27
2018-08-04T09:09:02.068Z,48.64
2018-08-04T09:10:02.117Z,48.86
2018-08-04T09:11:02.118Z,48.23
2018-08-04T09:12:02.224Z,48.95
2018-08-04T09:13:02.221Z,48.87
2018-08-04T09:14:02.095Z,48.86
2018-08-04T09:15:02.117Z,48.68
2018-08-04T09:16:02.115Z,48.24
2018-08-04T09:17:02.200Z,48.69
2018-08-04T09:18:02.142Z,48.91
2018-08-04T09:19:02.171Z,47.26
2018-08-04T09:20:02.103Z,47.45
2018-08-04T09:21:02.109Z,47.25
2018-08-04T09:22:02.232Z,45.86
2018-08-04T09:23:02.359Z,44.86
2018-08-04T09:24:02.268Z,45.11
2018-08-04T09:25:02.096Z,44.57
2018-08-04T09:26:02.192Z,45.36
2018-08-04T09:27:02.222Z,44.68
2018-08-04T09:28:02.300Z,44.83
2018-08-04T09:29:02.128Z,44.59
2018-08-04T09:30:02.138Z,44.67
2018-08-04T09:31:02.204Z,45.55
2018-08-04T09:32:02.195Z,44.96
2018-08-04T09:33:02.111Z,44.04
2018-08-04T09:34:02.171Z,44.15
2018-08-04T09:35:02.108Z,43.96
2018-08-04T09:36:02.099Z,43.83
2018-08-04T09:37:02.187Z,43.98
2018-08-04T09:38:02.421Z,44.32
2018-08-04T09:39:02.287Z,43.57
2018-08-04T09:40:02.123Z,43.36
2018-08-04T09:41:02.331Z,43.54
2018-08-04T09:42:02.342Z,43.42
2018-08-04T09:43:02.140Z,43.47
2018-08-04T09:44:02.108Z,43.35
2018-08-04T09:45:02.166Z,43.02
2018-08-04T09:46:02.248Z,42.36
2018-08-04T09:47:02.749Z,42.4
2018-08-04T09:48:02.364Z,42.53
2018-08-04T09:49:02.126Z,42.76
2018-08-04T09:50:02.369Z,42.48
2018-08-04T09:51:02.129Z,42.63
2018-08-04T09:52:03.116Z,42.72
2018-08-04T09:53:02.158Z,42.88
2018-08-04T09:54:02.129Z,42.87
2018-08-04T09:55:02.229Z,42.77
2018-08-04T09:56:02.153Z,42.98
2018-08-04T09:57:02.156Z,42.81
2018-08-04T09:58:02.163Z,42.78
2018-08-04T09:59:02.136Z,42.59
2018-08-04T10:00:02.138Z,42.89
2018-08-04T10:01:02.192Z,42.02
2018-08-04T10:02:02.145Z,42.28
2018-08-04T10:03:02.212Z,42.19
2018-08-04T10:04:02.235Z,42.9
2018-08-04T10:05:04.561Z,42.36
2018-08-04T10:06:02.240Z,42.96
2018-08-04T10:07:02.269Z,42.55
2018-08-04T10:08:02.158Z,42.12
2018-08-04T10:09:02.165Z,42.01
2018-08-04T10:10:02.206Z,42.43
2018-08-04T10:11:02.169Z,41.56
2018-08-04T10:12:02.163Z,41.6
2018-08-04T10:13:02.209Z,41.91
2018-08-04T10:14:02.196Z,41.63
2018-08-04T10:15:02.269Z,41.88
2018-08-04T10:16:02.184Z,41.68
2018-08-04T10:17:02.193Z,42.22
2018-08-04T10:18:02.166Z,41.47
2018-08-04T10:19:02.213Z,41.2
2018-08-04T10:20:02.208Z,40.68
2018-08-04T10:21:02.204Z,40.51
2018-08-04T10:22:02.226Z,40.83
2018-08-04T10:23:02.189Z,40.16
2018-08-04T10:24:02.261Z,40.26
2018-08-04T10:25:02.247Z,40.65
2018-08-04T10:26:02.518Z,41.54
2018-08-04T10:27:02.343Z,40.99
2018-08-04T10:28:02.325Z,40.78
2018-08-04T10:29:02.190Z,41.54
2018-08-04T10:30:02.216Z,41.61
2018-08-04T10:31:02.801Z,41.14
2018-08-04T10:32:03.104Z,40.9
2018-08-04T10:33:02.238Z,41.32
2018-08-04T10:34:02.258Z,40.25
2018-08-04T10:35:02.482Z,40.47
2018-08-04T10:36:02.350Z,40.13
2018-08-04T10:37:02.270Z,40.31
2018-08-04T10:38:03.265Z,39.59
2018-08-04T10:39:02.207Z,39.6
2018-08-04T10:40:02.401Z,39.37
2018-08-04T10:41:02.568Z,39.98
2018-08-04T10:42:03.250Z,39.92
2018-08-04T10:43:02.326Z,39.61
2018-08-04T10:44:07.060Z,39.07
2018-08-04T10:45:02.404Z,38.15
2018-08-04T10:46:02.277Z,38.19
2018-08-04T10:47:02.240Z,37.95
2018-08-04T10:48:02.312Z,38.39
2018-08-04T10:49:02.282Z,38.09
2018-08-04T10:50:02.414Z,38.15
2018-08-04T10:51:02.443Z,38.55
2018-08-04T10:52:02.307Z,38.65
2018-08-04T10:53:02.274Z,38.58
2018-08-04T10:54:02.281Z,38.3
2018-08-04T10:55:02.299Z,38.1
2018-08-04T10:56:02.249Z,38.04
2018-08-04T10:57:02.490Z,38.36
2018-08-04T10:58:02.262Z,38.78
2018-08-04T10:59:02.242Z,37.38
2018-08-04T11:00:02.253Z,37.2
2018-08-04T11:01:02.396Z,37.38
2018-08-04T11:02:02.242Z,37.38
2018-08-04T11:03:02.222Z,37.96
2018-08-04T11:04:02.382Z,37.92
2018-08-04T11:05:02.242Z,38.15
2018-08-04T11:06:02.327Z,37.67
2018-08-04T11:07:02.410Z,36.5
2018-08-04T11:08:02.352Z,35.91
2018-08-04T11:09:02.416Z,35.38
2018-08-04T11:10:02.526Z,35.91
2018-08-04T11:11:02.274Z,36.31
2018-08-04T11:12:02.315Z,35.56
2018-08-04T11:13:02.458Z,35.5
2018-08-04T11:14:02.803Z,35.49
2018-08-04T11:15:02.667Z,34.89
2018-08-04T11:16:02.361Z,35.49
2018-08-04T11:17:02.321Z,35.26
2018-08-04T11:18:02.634Z,34.27
2018-08-04T11:19:02.482Z,34.87
2018-08-04T11:20:03.418Z,35.51
2018-08-04T11:21:02.292Z,33.54
2018-08-04T11:22:03.582Z,33.99
2018-08-04T11:23:04.454Z,34.44
2018-08-04T11:24:02.587Z,34.41
2018-08-04T11:25:02.417Z,33.51
2018-08-04T11:26:02.327Z,33.84
2018-08-04T11:27:02.351Z,34.32
2018-08-04T11:28:02.434Z,34.02
2018-08-04T11:29:02.453Z,33.77
2018-08-04T11:30:02.448Z,34.07
2018-08-04T11:31:02.479Z,34.07
2018-08-04T11:32:02.462Z,33.42
2018-08-04T11:33:02.468Z,33.3
2018-08-04T11:34:02.371Z,34.09
2018-08-04T11:35:02.386Z,32.72
2018-08-04T11:36:02.394Z,32.76
2018-08-04T11:37:03.439Z,32.91
2018-08-04T11:38:02.509Z,32.92
2018-08-04T11:39:02.784Z,32.5
2018-08-04T11:40:02.535Z,32.83
2018-08-04T11:41:02.419Z,32.87
2018-08-04T11:42:02.439Z,33.14
2018-08-04T11:43:02.433Z,33.31
2018-08-04T11:44:02.440Z,34.09
2018-08-04T11:45:02.566Z,34.12
2018-08-04T11:46:02.453Z,33.89
2018-08-04T11:47:02.474Z,33.95
2018-08-04T11:48:02.684Z,33.57
2018-08-04T11:49:02.474Z,33.14
2018-08-04T11:50:02.495Z,33.01
2018-08-04T11:51:02.341Z,32.65
2018-08-04T11:52:02.505Z,32.7
2018-08-04T11:53:02.419Z,33.48
2018-08-04T11:54:02.421Z,32.9
2018-08-04T11:55:02.525Z,32.65
2018-08-04T11:56:03.466Z,32.43
2018-08-04T11:57:02.351Z,32.02
2018-08-04T11:58:02.434Z,32.22
2018-08-04T11:59:02.356Z,32.21
2018-08-04T12:00:02.364Z,32.79
2018-08-04T12:01:02.481Z,32.33
2018-08-04T12:02:02.941Z,32.66
2018-08-04T12:03:02.336Z,32.66
2018-08-04T12:04:02.486Z,33.05
2018-08-04T12:05:02.397Z,33.15
2018-08-04T12:06:02.357Z,33.23
2018-08-04T12:07:02.502Z,33.11
2018-08-04T12:08:02.342Z,33.1
2018-08-04T12:09:02.420Z,33.14
2018-08-04T12:10:02.438Z,32.82
2018-08-04T12:11:02.585Z,33
2018-08-04T12:12:02.398Z,33.33
2018-08-04T12:13:02.556Z,33.48
2018-08-04T12:14:02.384Z,33.87
2018-08-04T12:15:02.522Z,32.36
2018-08-04T12:16:02.470Z,32.5
2018-08-04T12:17:02.410Z,31.82
2018-08-04T12:18:02.650Z,31.94
2018-08-04T12:19:02.480Z,32.57
2018-08-04T12:20:02.937Z,32.19
2018-08-04T12:21:02.999Z,31.1
2018-08-04T12:22:02.432Z,30.84
2018-08-04T12:23:02.363Z,30.82
2018-08-04T12:24:02.381Z,30.58
2018-08-04T12:25:02.557Z,31.15
2018-08-04T12:26:02.422Z,31.29
2018-08-04T12:27:02.474Z,30.7
2018-08-04T12:28:03.575Z,31.63
2018-08-04T12:29:02.377Z,31.41
2018-08-04T12:30:02.564Z,31.79
2018-08-04T12:31:02.470Z,31.76
2018-08-04T12:32:02.479Z,32.22
2018-08-04T12:33:02.527Z,32.16
2018-08-04T12:34:02.489Z,32.13
2018-08-04T12:35:02.354Z,30.99
2018-08-04T12:36:02.353Z,30.44
2018-08-04T12:37:02.516Z,30.18
2018-08-04T12:38:02.370Z,30.47
2018-08-04T12:39:02.363Z,30.28
2018-08-04T12:40:02.530Z,31.22
2018-08-04T12:41:02.528Z,31.11
2018-08-04T12:42:02.397Z,30.44
2018-08-04T12:43:02.447Z,30.11
2018-08-04T12:44:02.404Z,29.81
2018-08-04T12:45:02.384Z,29.87
2018-08-04T12:46:02.573Z,30.03
2018-08-04T12:47:02.400Z,29.45
2018-08-04T12:48:02.405Z,30.01
2018-08-04T12:49:02.502Z,29.89
2018-08-04T12:50:02.391Z,30.24
2018-08-04T12:51:02.404Z,30.59
2018-08-04T12:52:02.511Z,30.08
2018-08-04T12:53:02.388Z,30.3
2018-08-04T12:54:02.417Z,30.87
2018-08-04T12:55:02.543Z,29.73